Barkley Regional Airport Paducah US
ICAO: KPAH
IATA: PAH
Category: Medium
Scheduled Services: Yes

Elevation: 410 ft
TransAlt. 18000 ft.

Airport Communications:
ASOS:118.375
MEMPHIS CNTR:133.65
CTAF:119.6
GND:121.7
LOUISVILLE RDO:122.2
PADUCAH TWR:119.6
UNICOM:123

KPAH Zoom In..

If Map Doesn't Load, Click Here

Runways:

(A) RW 04 length 6500 ft width 150 ft
ILS 108.50 / hdg 45

(B) RW 14 length 5499 ft width 150 ft
---- / hdg 140

(C) RW 22 length 6500 ft width 150 ft
---- / hdg 225

(D) RW 32 length 5499 ft width 150 ft
---- / hdg 320

Location; KPAH
Day. 26 / Time. 10.26 Zulu
* Altimeter: 30.00
* Temperature: 22° c. 71.6°f.
* Wind from: 340° Speed 05 kn.
Dewpoint: 20° c.
Visibility: 8 Statute Miles.
Clouds: Scattered 1300 ft.
Clouds: Scattered 1800 ft.
Clouds: Broken 9000 ft.

KPAH 261026Z AUTO 34005KT 8SM SCT013 SCT018 BKN090 22/20 A3000 RMK AO2 T02220200


Wind From 340°
Speed 05 kn.

 
 
jpsmedia.com for Web Design worldairports.se 2018   terms of use